Time;durP1;ratioP1;P1;durP2;ratioP2;P2;SDS_P1;SDS_P2;PMS_P1;PMS_P2;Temp;Humidity;BMP_temperature;BMP_pressure;BME280_temperature;BME280_humidity;BME280_pressure;Samples;Min_cycle;Max_cycle;Signal;HPM_P1;HPM_P2
2022/01/18 00:00:28;;;;;;;34.30;4.62;;;;;;;;;;2346791;57;21110;-75
2022/01/18 00:02:56;;;;;;;18.20;5.05;;;;;;;;;;2347464;57;21051;-76
2022/01/18 00:05:23;;;;;;;23.62;5.43;;;;;;;;;;2347259;57;21055;-76
2022/01/18 00:07:50;;;;;;;23.85;4.70;;;;;;;;;;2347323;57;21065;-75
2022/01/18 00:10:17;;;;;;;22.02;4.43;;;;;;;;;;2347017;57;21572;-77
2022/01/18 00:15:39;;;;;;;34.85;4.90;;;;;;;;;;2297706;57;21597;-75
2022/01/18 00:18:09;;;;;;;24.48;4.15;;;;;;;;;;2594627;53;21126;-76
2022/01/18 00:20:47;;;;;;;36.70;5.50;;;;;;;;;;2347013;57;21125;-76
2022/01/18 00:23:15;;;;;;;21.73;4.53;;;;;;;;;;2347447;57;21189;-76
2022/01/18 00:25:46;;;;;;;17.87;4.28;;;;;;;;;;2594301;53;21066;-76
2022/01/18 00:28:13;;;;;;;28.17;3.75;;;;;;;;;;2347589;57;21038;-75
2022/01/18 00:31:10;;;;;;;25.05;4.32;;;;;;;;;;2346985;57;21508;-76
2022/01/18 00:33:49;;;;;;;25.77;3.75;;;;;;;;;;2347712;57;21115;-75
2022/01/18 00:36:26;;;;;;;24.95;4.03;;;;;;;;;;2347347;57;21035;-75
2022/01/18 00:38:53;;;;;;;25.00;4.62;;;;;;;;;;2346814;57;21180;-76
2022/01/18 00:41:22;;;;;;;19.40;3.30;;;;;;;;;;2347229;57;21055;-75
2022/01/18 00:43:50;;;;;;;26.90;4.00;;;;;;;;;;2347441;57;21553;-76
2022/01/18 00:46:17;;;;;;;16.00;3.97;;;;;;;;;;2346853;57;21051;-75
2022/01/18 00:48:45;;;;;;;27.23;3.60;;;;;;;;;;2347256;57;21121;-76
2022/01/18 00:51:14;;;;;;;21.05;4.10;;;;;;;;;;2347396;57;21126;-75
2022/01/18 00:53:42;;;;;;;15.55;3.62;;;;;;;;;;2347409;57;21118;-75
2022/01/18 00:56:19;;;;;;;28.73;5.03;;;;;;;;;;2347267;57;21557;-75
2022/01/18 00:58:47;;;;;;;18.23;3.33;;;;;;;;;;2346865;57;21067;-77
2022/01/18 01:01:15;;;;;;;22.98;4.30;;;;;;;;;;2347276;57;21103;-76
2022/01/18 01:03:42;;;;;;;17.33;3.85;;;;;;;;;;2347287;57;21038;-76
2022/01/18 01:06:10;;;;;;;18.42;4.20;;;;;;;;;;2347122;57;21580;-75
2022/01/18 01:08:37;;;;;;;31.35;6.47;;;;;;;;;;2347137;57;21051;-76
2022/01/18 01:11:05;;;;;;;18.87;3.70;;;;;;;;;;2594641;53;21454;-75
2022/01/18 01:13:33;;;;;;;25.77;5.35;;;;;;;;;;2347323;57;21043;-76
2022/01/18 01:16:12;;;;;;;19.98;3.47;;;;;;;;;;2347494;57;21118;-76
2022/01/18 01:18:48;;;;;;;14.18;2.83;;;;;;;;;;2347440;57;21555;-76
2022/01/18 01:32:49;;;;;;;25.20;3.65;;;;;;;;;;2346948;57;21037;-74
2022/01/18 01:35:33;;;;;;;16.95;3.42;;;;;;;;;;2346969;57;21363;-78
2022/01/18 01:43:36;;;;;;;17.52;3.22;;;;;;;;;;2347354;57;21466;-75
2022/01/18 01:46:03;;;;;;;;;;;;;;;;;;2351255;57;21126;-75
2022/01/18 01:48:31;;;;;;;15.57;3.00;;;;;;;;;;2347285;57;20107;-77
2022/01/18 01:51:03;;;;;;;21.98;4.32;;;;;;;;;;2347481;57;21223;-78
2022/01/18 01:53:30;;;;;;;19.08;5.18;;;;;;;;;;2347962;57;21047;-77
2022/01/18 01:55:58;;;;;;;19.45;4.12;;;;;;;;;;2347403;57;21313;-76
2022/01/18 01:58:26;;;;;;;14.65;2.65;;;;;;;;;;2347450;57;21035;-75
2022/01/18 02:00:54;;;;;;;20.92;3.70;;;;;;;;;;2346917;57;21079;-75
2022/01/18 02:03:21;;;;;;;16.92;3.50;;;;;;;;;;2347511;57;21094;-75
2022/01/18 02:05:49;;;;;;;15.98;2.72;;;;;;;;;;2347337;57;21149;-75
2022/01/18 02:08:16;;;;;;;18.12;3.65;;;;;;;;;;2347379;57;21055;-75
2022/01/18 02:10:44;;;;;;;14.82;2.37;;;;;;;;;;2346977;57;21162;-75
2022/01/18 02:13:12;;;;;;;19.30;4.22;;;;;;;;;;2347439;57;21059;-75
2022/01/18 02:15:44;;;;;;;20.30;2.80;;;;;;;;;;2347274;57;21637;-76
2022/01/18 02:23:43;;;;;;;11.18;2.42;;;;;;;;;;2347436;57;21046;-76
2022/01/18 02:26:10;;;;;;;13.65;2.60;;;;;;;;;;2347078;57;21054;-76
2022/01/18 02:28:37;;;;;;;16.73;3.42;;;;;;;;;;2347185;57;21039;-76
2022/01/18 02:31:04;;;;;;;18.85;4.03;;;;;;;;;;2594703;53;21158;-76
2022/01/18 02:33:31;;;;;;;16.73;2.05;;;;;;;;;;2347440;57;21035;-76
2022/01/18 02:35:59;;;;;;;10.32;2.60;;;;;;;;;;2347267;57;21043;-76
2022/01/18 02:38:26;;;;;;;11.43;2.60;;;;;;;;;;2347161;57;21046;-76
2022/01/18 02:40:53;;;;;;;7.15;2.45;;;;;;;;;;2347014;57;21051;-75
2022/01/18 02:49:01;;;;;;;14.25;3.30;;;;;;;;;;2310028;56;27876;-75
2022/01/18 02:51:28;;;;;;;16.08;2.60;;;;;;;;;;2611874;53;21479;-76
2022/01/18 02:53:57;;;;;;;15.85;2.85;;;;;;;;;;2361436;57;21032;-77
2022/01/18 02:56:26;;;;;;;8.63;1.90;;;;;;;;;;2361300;57;21035;-77
2022/01/18 02:59:01;;;;;;;12.55;2.65;;;;;;;;;;2361165;57;21107;-75
2022/01/18 03:04:13;;;;;;;20.52;3.03;;;;;;;;;;2361284;57;20952;-77
2022/01/18 03:06:41;;;;;;;16.20;2.42;;;;;;;;;;2361355;57;21084;-76
2022/01/18 03:09:08;;;;;;;8.15;2.03;;;;;;;;;;2360392;57;21031;-76
2022/01/18 03:11:35;;;;;;;12.40;2.62;;;;;;;;;;2611815;53;21598;-75
2022/01/18 03:14:02;;;;;;;12.07;2.72;;;;;;;;;;2361155;57;21033;-75
2022/01/18 03:16:30;;;;;;;15.77;2.90;;;;;;;;;;2361366;57;21024;-75
2022/01/18 03:18:57;;;;;;;8.20;2.17;;;;;;;;;;2360872;57;21112;-76
2022/01/18 03:21:24;;;;;;;9.50;1.90;;;;;;;;;;2360808;57;21571;-76
2022/01/18 03:23:58;;;;;;;10.80;1.87;;;;;;;;;;2360819;57;21072;-76
2022/01/18 03:26:32;;;;;;;7.95;2.35;;;;;;;;;;2361193;57;21028;-75
2022/01/18 03:28:59;;;;;;;15.45;2.30;;;;;;;;;;2610822;53;21099;-76
2022/01/18 03:31:27;;;;;;;8.05;1.80;;;;;;;;;;2360965;57;21016;-76
2022/01/18 03:33:54;;;;;;;5.75;1.98;;;;;;;;;;2360955;57;21512;-76
2022/01/18 03:36:21;;;;;;;8.65;1.80;;;;;;;;;;2360751;57;21418;-76
2022/01/18 03:38:49;;;;;;;11.15;1.67;;;;;;;;;;2610910;52;21080;-75
2022/01/18 03:41:18;;;;;;;11.60;2.50;;;;;;;;;;2361386;57;21024;-75
2022/01/18 03:43:45;;;;;;;8.82;1.70;;;;;;;;;;2611556;53;21028;-75
2022/01/18 03:46:12;;;;;;;11.40;1.50;;;;;;;;;;2361465;57;21028;-75
2022/01/18 03:48:49;;;;;;;11.07;2.12;;;;;;;;;;2360849;57;21693;-76
2022/01/18 03:51:16;;;;;;;6.55;1.50;;;;;;;;;;2361569;57;21080;-75
2022/01/18 03:53:43;;;;;;;5.55;1.52;;;;;;;;;;2611588;53;21028;-75
2022/01/18 03:56:11;;;;;;;8.73;2.15;;;;;;;;;;2361523;57;21090;-75
2022/01/18 03:58:38;;;;;;;18.60;2.20;;;;;;;;;;2360592;57;21539;-77
2022/01/18 04:01:05;;;;;;;12.95;2.20;;;;;;;;;;2359811;57;21036;-76
2022/01/18 04:03:32;;;;;;;6.20;1.95;;;;;;;;;;2360375;57;21547;-75
2022/01/18 04:06:00;;;;;;;8.75;1.75;;;;;;;;;;2360393;57;21080;-76
2022/01/18 04:08:27;;;;;;;7.45;1.73;;;;;;;;;;2359860;57;21575;-75
2022/01/18 04:10:54;;;;;;;9.65;1.75;;;;;;;;;;2610442;53;21091;-75
2022/01/18 04:13:21;;;;;;;6.72;1.87;;;;;;;;;;2360515;57;21072;-75
2022/01/18 04:15:48;;;;;;;13.45;2.67;;;;;;;;;;2360247;57;21531;-76
2022/01/18 04:18:23;;;;;;;11.75;2.78;;;;;;;;;;2360202;57;21017;-75
2022/01/18 04:29:09;;;;;;;12.02;1.52;;;;;;;;;;2359472;57;21023;-77
2022/01/18 04:31:37;;;;;;;7.25;1.80;;;;;;;;;;2360373;57;21095;-76
2022/01/18 04:34:04;;;;;;;8.65;1.40;;;;;;;;;;2360357;57;21029;-77
2022/01/18 04:36:31;;;;;;;8.88;2.08;;;;;;;;;;2367229;54;21040;-76
2022/01/18 04:38:59;;;;;;;11.93;2.62;;;;;;;;;;2246999;58;21125;-75
2022/01/18 04:41:28;;;;;;;5.75;1.58;;;;;;;;;;2290041;58;21119;-75
2022/01/18 04:49:28;;;;;;;5.55;1.40;;;;;;;;;;2290077;58;21087;-76
2022/01/18 04:51:55;;;;;;;6.18;1.23;;;;;;;;;;2525402;55;21119;-75
2022/01/18 04:54:29;;;;;;;4.78;1.73;;;;;;;;;;2524806;55;21144;-75
2022/01/18 04:59:42;;;;;;;4.50;1.30;;;;;;;;;;2289826;58;21506;-75
2022/01/18 05:02:09;;;;;;;7.95;1.35;;;;;;;;;;2290202;58;21135;-75
2022/01/18 05:04:36;;;;;;;4.65;1.30;;;;;;;;;;2289960;58;21068;-75
2022/01/18 05:07:07;;;;;;;9.00;2.53;;;;;;;;;;2289959;58;21441;-75
2022/01/18 05:09:35;;;;;;;9.38;1.98;;;;;;;;;;2289579;58;21139;-75
2022/01/18 05:12:07;;;;;;;5.45;1.17;;;;;;;;;;2290136;58;21075;-75
2022/01/18 05:14:36;;;;;;;8.95;1.75;;;;;;;;;;2290596;58;21060;-75
2022/01/18 05:17:12;;;;;;;6.93;1.90;;;;;;;;;;2289989;58;21175;-75
2022/01/18 05:19:55;;;;;;;7.82;1.70;;;;;;;;;;2288279;58;21055;-75
2022/01/18 05:25:08;;;;;;;9.15;1.80;;;;;;;;;;2290269;58;21600;-75
2022/01/18 05:27:35;;;;;;;4.35;1.55;;;;;;;;;;2289871;58;21063;-75
2022/01/18 05:30:03;;;;;;;7.87;1.50;;;;;;;;;;2290202;58;21093;-75
2022/01/18 05:32:31;;;;;;;7.78;1.67;;;;;;;;;;2290366;58;21068;-75
2022/01/18 05:34:58;;;;;;;6.47;1.87;;;;;;;;;;2524686;55;21135;-75
2022/01/18 05:37:25;;;;;;;11.10;1.92;;;;;;;;;;2289379;58;21610;-74
2022/01/18 05:39:52;;;;;;;7.72;1.42;;;;;;;;;;2289625;58;21080;-74
2022/01/18 05:42:19;;;;;;;11.50;2.97;;;;;;;;;;2289651;58;21128;-75
2022/01/18 05:44:47;;;;;;;9.68;1.80;;;;;;;;;;2289267;58;21112;-74
2022/01/18 05:47:14;;;;;;;7.37;1.60;;;;;;;;;;2289186;58;21112;-76
2022/01/18 05:49:41;;;;;;;6.03;1.50;;;;;;;;;;2289029;58;21127;-75
2022/01/18 05:52:09;;;;;;;8.57;1.45;;;;;;;;;;2289027;58;21131;-75
2022/01/18 05:54:36;;;;;;;5.55;1.50;;;;;;;;;;2288984;58;21535;-75
2022/01/18 05:57:03;;;;;;;9.70;1.65;;;;;;;;;;2289029;58;21144;-75
2022/01/18 05:59:36;;;;;;;7.00;1.83;;;;;;;;;;2289769;58;21119;-75
2022/01/18 06:02:15;;;;;;;13.77;1.70;;;;;;;;;;2290241;58;21158;-75
2022/01/18 06:07:27;;;;;;;6.93;1.30;;;;;;;;;;2289933;58;21012;-75
2022/01/18 06:09:56;;;;;;;11.02;2.10;;;;;;;;;;2289594;58;21337;-75
2022/01/18 06:12:23;;;;;;;13.18;2.00;;;;;;;;;;2290242;58;21083;-75
2022/01/18 06:14:51;;;;;;;9.18;1.45;;;;;;;;;;2290044;58;21555;-75
2022/01/18 06:17:18;;;;;;;19.67;2.90;;;;;;;;;;2289861;58;21071;-75
2022/01/18 06:19:45;;;;;;;10.73;2.22;;;;;;;;;;2289641;58;21086;-75
2022/01/18 06:22:12;;;;;;;9.02;2.05;;;;;;;;;;2289709;58;21139;-76
2022/01/18 06:24:40;;;;;;;8.63;3.17;;;;;;;;;;2289726;58;21059;-77
2022/01/18 06:27:07;;;;;;;8.02;2.65;;;;;;;;;;2289873;58;21630;-75
2022/01/18 06:29:35;;;;;;;9.20;1.70;;;;;;;;;;2290002;58;21067;-74
2022/01/18 06:32:02;;;;;;;9.10;2.00;;;;;;;;;;2289956;58;21127;-75
2022/01/18 06:34:29;;;;;;;12.70;2.35;;;;;;;;;;2290253;58;21076;-74
2022/01/18 06:36:57;;;;;;;6.22;1.67;;;;;;;;;;2290108;58;21055;-74
2022/01/18 06:39:24;;;;;;;5.60;1.30;;;;;;;;;;2289860;58;21554;-74
2022/01/18 06:41:51;;;;;;;9.63;1.77;;;;;;;;;;2289579;58;21563;-74
2022/01/18 06:44:18;;;;;;;11.20;2.08;;;;;;;;;;2290480;58;21183;-74
2022/01/18 06:46:46;;;;;;;6.28;1.75;;;;;;;;;;2289812;58;21064;-74
2022/01/18 06:49:13;;;;;;;10.93;2.00;;;;;;;;;;2289990;58;21558;-75
2022/01/18 06:51:40;;;;;;;5.40;2.10;;;;;;;;;;2290418;58;21155;-75
2022/01/18 06:54:13;;;;;;;7.00;1.87;;;;;;;;;;2290182;58;21071;-74
2022/01/18 06:56:43;;;;;;;13.90;2.72;;;;;;;;;;2290398;58;21137;-74
2022/01/18 06:59:11;;;;;;;8.00;1.87;;;;;;;;;;2290064;58;21598;-75
2022/01/18 07:01:38;;;;;;;9.63;2.35;;;;;;;;;;2524966;55;21147;-75
2022/01/18 07:04:06;;;;;;;11.45;1.83;;;;;;;;;;2525405;55;21052;-74
2022/01/18 07:06:33;;;;;;;7.82;2.00;;;;;;;;;;2525322;55;21540;-74
2022/01/18 07:09:01;;;;;;;7.78;1.67;;;;;;;;;;2289901;58;21075;-74
2022/01/18 07:11:28;;;;;;;11.27;2.10;;;;;;;;;;2525145;55;21136;-75
2022/01/18 07:13:55;;;;;;;8.63;2.05;;;;;;;;;;2290465;58;21576;-74
2022/01/18 07:16:22;;;;;;;10.68;2.12;;;;;;;;;;2290606;58;21133;-74
2022/01/18 07:18:49;;;;;;;9.40;2.00;;;;;;;;;;2290175;58;21155;-74
2022/01/18 07:21:17;;;;;;;11.25;2.60;;;;;;;;;;2290223;58;21120;-74
2022/01/18 07:23:44;;;;;;;10.43;2.05;;;;;;;;;;2290417;58;21044;-74
2022/01/18 07:26:11;;;;;;;17.42;3.72;;;;;;;;;;2290232;58;21112;-75
2022/01/18 07:28:38;;;;;;;9.75;2.60;;;;;;;;;;2290184;58;21563;-75
2022/01/18 07:31:05;;;;;;;8.02;2.70;;;;;;;;;;2290330;58;21135;-74
2022/01/18 07:33:35;;;;;;;10.48;3.25;;;;;;;;;;2289983;58;21152;-74
2022/01/18 07:36:02;;;;;;;12.00;3.15;;;;;;;;;;2289902;58;21147;-75
2022/01/18 07:38:29;;;;;;;14.48;3.62;;;;;;;;;;2290042;58;21068;-74
2022/01/18 07:40:56;;;;;;;12.40;2.75;;;;;;;;;;2290132;58;21123;-75
2022/01/18 07:43:23;;;;;;;14.80;3.15;;;;;;;;;;2525439;55;21056;-74
2022/01/18 07:45:51;;;;;;;18.90;3.00;;;;;;;;;;2290685;58;21072;-74
2022/01/18 07:48:22;;;;;;;15.70;3.45;;;;;;;;;;2290423;58;21227;-74
2022/01/18 07:50:51;;;;;;;12.07;2.58;;;;;;;;;;2290367;58;21056;-74
2022/01/18 07:53:18;;;;;;;14.68;3.37;;;;;;;;;;2290607;58;21056;-75
2022/01/18 07:55:47;;;;;;;15.32;3.40;;;;;;;;;;2290360;58;21111;-74
2022/01/18 07:58:14;;;;;;;18.15;6.32;;;;;;;;;;2290591;58;21075;-75
2022/01/18 08:00:41;;;;;;;13.00;3.72;;;;;;;;;;2289704;58;21146;-75
2022/01/18 08:03:09;;;;;;;23.10;3.95;;;;;;;;;;2290216;58;21123;-75
2022/01/18 08:05:37;;;;;;;19.67;3.75;;;;;;;;;;2290143;58;22197;-74
2022/01/18 08:08:05;;;;;;;14.23;4.75;;;;;;;;;;2290245;58;21202;-75
2022/01/18 08:10:33;;;;;;;21.27;4.72;;;;;;;;;;2290321;58;21095;-74
2022/01/18 08:13:02;;;;;;;14.82;3.40;;;;;;;;;;2290230;58;21071;-75
2022/01/18 08:15:37;;;;;;;13.35;3.25;;;;;;;;;;2525475;55;21063;-75
2022/01/18 08:18:05;;;;;;;19.83;3.83;;;;;;;;;;2290407;58;21135;-75
2022/01/18 08:20:32;;;;;;;20.60;4.05;;;;;;;;;;2290037;58;21072;-75
2022/01/18 08:22:59;;;;;;;26.95;4.03;;;;;;;;;;2290349;58;21143;-73
2022/01/18 08:25:27;;;;;;;19.15;4.80;;;;;;;;;;2290436;58;21664;-75
2022/01/18 08:27:54;;;;;;;21.50;4.03;;;;;;;;;;2290205;58;21728;-74
2022/01/18 08:30:21;;;;;;;17.55;4.28;;;;;;;;;;2289992;58;21155;-74
2022/01/18 08:32:49;;;;;;;20.85;5.45;;;;;;;;;;2290308;58;21213;-75
2022/01/18 08:35:17;;;;;;;21.80;5.22;;;;;;;;;;2290281;58;21162;-75
2022/01/18 08:37:46;;;;;;;15.82;5.37;;;;;;;;;;2289572;58;21135;-75
2022/01/18 08:40:13;;;;;;;20.98;4.60;;;;;;;;;;2289642;58;21385;-74
2022/01/18 08:42:40;;;;;;;20.15;4.30;;;;;;;;;;2290382;58;21076;-74
2022/01/18 08:45:08;;;;;;;18.37;4.22;;;;;;;;;;2290150;58;21127;-75
2022/01/18 08:47:36;;;;;;;18.60;3.95;;;;;;;;;;2290054;58;21472;-75
2022/01/18 08:50:04;;;;;;;24.58;4.47;;;;;;;;;;2289758;58;21075;-74
2022/01/18 08:52:31;;;;;;;21.85;5.47;;;;;;;;;;2290244;58;21056;-74
2022/01/18 08:54:59;;;;;;;29.02;5.80;;;;;;;;;;2290403;58;21538;-74
2022/01/18 08:57:26;;;;;;;23.17;4.47;;;;;;;;;;2290294;58;21143;-74
2022/01/18 08:59:53;;;;;;;21.67;4.75;;;;;;;;;;2289750;58;21139;-75
2022/01/18 09:02:21;;;;;;;20.12;4.70;;;;;;;;;;2290566;58;21143;-76
2022/01/18 09:04:48;;;;;;;25.95;5.57;;;;;;;;;;2289880;58;21430;-74
2022/01/18 09:07:17;;;;;;;25.60;4.72;;;;;;;;;;2290321;58;21645;-75
2022/01/18 09:09:46;;;;;;;35.78;6.72;;;;;;;;;;2291310;58;21060;-74
2022/01/18 09:12:15;;;;;;;25.75;6.40;;;;;;;;;;2291506;58;21135;-76
2022/01/18 09:14:42;;;;;;;32.95;10.05;;;;;;;;;;2291483;58;21135;-75
2022/01/18 09:17:09;;;;;;;23.45;5.90;;;;;;;;;;2291626;58;21132;-75
2022/01/18 09:19:37;;;;;;;24.98;5.57;;;;;;;;;;2291045;58;21697;-75
2022/01/18 09:22:04;;;;;;;22.02;4.40;;;;;;;;;;2291348;58;21071;-74
2022/01/18 09:24:32;;;;;;;32.03;5.43;;;;;;;;;;2291276;58;21060;-75
2022/01/18 09:27:00;;;;;;;32.63;6.15;;;;;;;;;;2289826;58;21055;-75
2022/01/18 09:29:27;;;;;;;24.65;6.70;;;;;;;;;;2291009;58;21064;-75
2022/01/18 09:31:54;;;;;;;25.35;5.80;;;;;;;;;;2291184;58;21102;-75
2022/01/18 09:34:21;;;;;;;25.75;6.00;;;;;;;;;;2290808;58;21072;-75
2022/01/18 09:36:49;;;;;;;21.42;5.97;;;;;;;;;;2290456;58;21677;-76
2022/01/18 09:39:16;;;;;;;25.95;4.87;;;;;;;;;;2524925;55;21108;-76
2022/01/18 09:41:47;;;;;;;19.30;5.82;;;;;;;;;;2525893;55;21063;-75
2022/01/18 09:44:14;;;;;;;16.58;4.10;;;;;;;;;;2290123;58;22221;-75
2022/01/18 09:46:41;;;;;;;22.23;4.60;;;;;;;;;;2289301;58;21067;-75
2022/01/18 09:49:09;;;;;;;25.02;5.40;;;;;;;;;;2288203;58;21067;-75
2022/01/18 09:51:36;;;;;;;21.67;4.03;;;;;;;;;;2523591;55;21119;-75
2022/01/18 09:54:03;;;;;;;23.38;4.95;;;;;;;;;;2288693;58;21131;-74
2022/01/18 09:56:31;;;;;;;23.58;4.22;;;;;;;;;;2287779;58;21064;-75
2022/01/18 09:58:58;;;;;;;19.60;3.92;;;;;;;;;;2288853;58;21713;-74
2022/01/18 10:01:26;;;;;;;16.85;3.67;;;;;;;;;;2290435;58;21076;-75
2022/01/18 10:03:53;;;;;;;18.80;3.97;;;;;;;;;;2526480;55;21044;-74
2022/01/18 10:06:21;;;;;;;22.62;4.55;;;;;;;;;;2291488;58;21120;-75
2022/01/18 10:08:49;;;;;;;26.50;3.92;;;;;;;;;;2290970;58;21122;-74
2022/01/18 10:11:17;;;;;;;28.02;4.50;;;;;;;;;;2291333;58;21436;-74
2022/01/18 10:13:46;;;;;;;11.75;3.50;;;;;;;;;;2291137;58;21621;-74
2022/01/18 10:16:14;;;;;;;23.70;3.78;;;;;;;;;;2291412;58;21136;-74
2022/01/18 10:18:46;;;;;;;15.82;3.40;;;;;;;;;;2291075;58;21120;-75
2022/01/18 10:21:15;;;;;;;15.10;4.28;;;;;;;;;;2291590;58;21071;-74
2022/01/18 10:23:48;;;;;;;16.73;3.83;;;;;;;;;;2291709;58;21139;-75
2022/01/18 10:26:17;;;;;;;22.58;4.12;;;;;;;;;;2291324;58;21076;-75
2022/01/18 10:28:45;;;;;;;22.23;3.90;;;;;;;;;;2291232;58;21060;-74
2022/01/18 10:31:26;;;;;;;29.25;5.05;;;;;;;;;;2291454;58;21135;-75
2022/01/18 10:34:11;;;;;;;20.90;4.95;;;;;;;;;;2291476;58;21582;-74
2022/01/18 10:39:23;;;;;;;26.85;4.95;;;;;;;;;;2321120;58;21115;-79
2022/01/18 10:41:50;;;;;;;25.62;5.12;;;;;;;;;;2563681;54;21040;-80
2022/01/18 10:44:18;;;;;;;18.55;3.85;;;;;;;;;;2563463;54;21056;-79
2022/01/18 10:46:48;;;;;;;20.17;4.30;;;;;;;;;;2321565;57;21063;-78
2022/01/18 10:49:26;;;;;;;25.35;4.12;;;;;;;;;;2362856;57;21036;-79
2022/01/18 10:51:57;;;;;;;22.45;4.65;;;;;;;;;;2363638;57;21076;-79
2022/01/18 10:54:33;;;;;;;19.77;4.62;;;;;;;;;;2362524;57;21167;-79
2022/01/18 10:57:02;;;;;;;15.50;4.03;;;;;;;;;;2362359;57;21104;-79
2022/01/18 10:59:29;;;;;;;30.35;5.35;;;;;;;;;;2362819;57;21540;-79
2022/01/18 11:02:09;;;;;;;17.15;4.30;;;;;;;;;;2362763;57;21187;-79
2022/01/18 11:04:38;;;;;;;23.45;5.90;;;;;;;;;;2613939;53;21093;-79
2022/01/18 11:07:05;;;;;;;15.40;3.40;;;;;;;;;;2363204;57;21095;-79
2022/01/18 11:09:33;;;;;;;18.05;3.78;;;;;;;;;;2362728;57;21088;-78
2022/01/18 11:12:01;;;;;;;14.35;2.83;;;;;;;;;;2363507;57;21029;-79
2022/01/18 11:14:30;;;;;;;18.65;3.15;;;;;;;;;;2363520;57;21057;-79
2022/01/18 11:16:58;;;;;;;21.52;3.85;;;;;;;;;;2614456;53;21077;-78
2022/01/18 11:19:32;;;;;;;18.48;3.35;;;;;;;;;;2614035;53;21112;-79
2022/01/18 11:22:01;;;;;;;15.18;3.30;;;;;;;;;;2363258;57;21132;-79
2022/01/18 11:24:29;;;;;;;17.83;2.92;;;;;;;;;;2363442;57;21116;-79
2022/01/18 11:26:56;;;;;;;16.60;4.53;;;;;;;;;;2363082;57;21551;-80
2022/01/18 11:29:25;;;;;;;20.73;4.00;;;;;;;;;;2361745;57;21061;-80
2022/01/18 11:31:54;;;;;;;14.73;5.15;;;;;;;;;;2362899;57;21029;-77
2022/01/18 11:34:26;;;;;;;13.02;3.15;;;;;;;;;;2362933;57;21044;-77
2022/01/18 11:36:58;;;;;;;14.13;2.63;;;;;;;;;;2363301;57;21025;-77
2022/01/18 11:39:30;;;;;;;13.82;3.22;;;;;;;;;;2362257;57;21105;-77
2022/01/18 11:42:06;;;;;;;12.88;2.60;;;;;;;;;;2362977;57;21041;-77
2022/01/18 11:44:33;;;;;;;8.85;2.20;;;;;;;;;;2363184;57;21153;-78
2022/01/18 11:47:00;;;;;;;14.05;2.08;;;;;;;;;;2613632;53;21525;-77
2022/01/18 11:49:29;;;;;;;9.82;1.75;;;;;;;;;;2362596;57;21156;-78
2022/01/18 11:51:59;;;;;;;12.05;2.47;;;;;;;;;;2613588;53;21029;-77
2022/01/18 11:54:32;;;;;;;8.45;2.28;;;;;;;;;;2362766;57;21092;-77
2022/01/18 11:57:00;;;;;;;13.10;2.50;;;;;;;;;;2363088;57;21585;-77
2022/01/18 11:59:35;;;;;;;10.40;2.25;;;;;;;;;;2612987;53;21093;-77
2022/01/18 12:02:04;;;;;;;6.53;2.25;;;;;;;;;;2362827;57;21033;-77
2022/01/18 12:04:54;;;;;;;10.05;3.05;;;;;;;;;;2613635;53;21084;-77
2022/01/18 12:07:42;;;;;;;13.25;2.62;;;;;;;;;;2362656;57;21025;-77
2022/01/18 12:10:10;;;;;;;15.20;2.25;;;;;;;;;;2362743;56;21533;-77
2022/01/18 12:12:51;;;;;;;5.97;2.40;;;;;;;;;;2362639;57;21038;-78
2022/01/18 12:15:43;;;;;;;10.90;1.85;;;;;;;;;;2362711;57;21187;-77
2022/01/18 12:18:14;;;;;;;8.45;2.03;;;;;;;;;;2613297;52;21105;-76
2022/01/18 12:20:44;;;;;;;11.48;2.35;;;;;;;;;;2612968;53;21168;-78
2022/01/18 12:23:13;;;;;;;17.98;2.47;;;;;;;;;;2362522;57;21111;-77
2022/01/18 12:25:54;;;;;;;9.57;2.08;;;;;;;;;;2362677;57;21033;-77
2022/01/18 12:28:48;;;;;;;7.93;2.03;;;;;;;;;;2362439;57;21033;-77
2022/01/18 12:31:30;;;;;;;;;;;;;;;;;;2366367;57;21095;-77
2022/01/18 12:33:57;;;;;;;10.20;3.03;;;;;;;;;;2362676;57;20114;-77
2022/01/18 12:36:28;;;;;;;11.43;2.83;;;;;;;;;;2363062;57;21529;-78
2022/01/18 12:38:58;;;;;;;8.82;2.22;;;;;;;;;;2613228;53;21524;-77
2022/01/18 12:41:40;;;;;;;11.45;2.45;;;;;;;;;;2614580;53;21092;-78
2022/01/18 12:44:22;;;;;;;7.62;2.08;;;;;;;;;;2612927;53;21029;-77
2022/01/18 12:46:53;;;;;;;5.37;2.03;;;;;;;;;;2362370;57;21037;-76
2022/01/18 12:49:20;;;;;;;8.60;2.12;;;;;;;;;;2362129;57;21064;-77
2022/01/18 12:51:54;;;;;;;7.47;2.28;;;;;;;;;;2613948;53;21036;-77
2022/01/18 12:54:21;;;;;;;7.32;2.62;;;;;;;;;;2363108;57;21624;-78
2022/01/18 12:56:48;;;;;;;13.73;2.70;;;;;;;;;;2613729;53;21116;-77
2022/01/18 12:59:15;;;;;;;9.18;2.22;;;;;;;;;;2613178;53;21036;-79
2022/01/18 13:01:43;;;;;;;9.27;2.28;;;;;;;;;;2362724;57;21513;-78
2022/01/18 13:04:10;;;;;;;3.37;1.70;;;;;;;;;;2362648;57;21545;-77
2022/01/18 13:06:38;;;;;;;5.70;1.98;;;;;;;;;;2613213;53;21525;-76
2022/01/18 13:09:05;;;;;;;5.25;1.90;;;;;;;;;;2362436;57;21032;-78
2022/01/18 13:11:34;;;;;;;6.87;1.98;;;;;;;;;;2362961;57;21135;-78
2022/01/18 13:14:07;;;;;;;5.55;2.95;;;;;;;;;;2362213;57;21477;-78
2022/01/18 13:27:40;;;;;;;8.52;3.75;;;;;;;;;;2362455;57;21069;-78
2022/01/18 13:30:18;;;;;;;6.55;2.62;;;;;;;;;;2613177;53;21080;-81
2022/01/18 13:32:45;;;;;;;8.20;2.72;;;;;;;;;;2613669;53;21037;-77
2022/01/18 13:35:15;;;;;;;4.78;2.10;;;;;;;;;;2361879;57;21057;-77
2022/01/18 13:37:42;;;;;;;5.70;2.87;;;;;;;;;;2613271;53;21116;-79
2022/01/18 13:40:12;;;;;;;7.82;2.62;;;;;;;;;;2613219;53;21096;-77
2022/01/18 13:42:41;;;;;;;6.60;2.37;;;;;;;;;;2361578;57;21425;-78
2022/01/18 13:45:12;;;;;;;5.28;1.95;;;;;;;;;;2362330;57;21041;-77
2022/01/18 13:47:41;;;;;;;12.32;2.80;;;;;;;;;;2362043;57;21091;-78
2022/01/18 13:50:27;;;;;;;8.45;2.72;;;;;;;;;;2362445;57;21132;-78
2022/01/18 13:52:58;;;;;;;9.45;2.50;;;;;;;;;;2361841;57;21048;-77
2022/01/18 13:55:26;;;;;;;6.57;2.40;;;;;;;;;;2362233;57;21096;-77
2022/01/18 13:57:56;;;;;;;5.15;2.10;;;;;;;;;;2612868;53;21048;-78
2022/01/18 14:00:24;;;;;;;2.87;1.80;;;;;;;;;;2362324;57;21583;-78
2022/01/18 14:02:51;;;;;;;4.97;1.37;;;;;;;;;;2362416;57;21234;-78
2022/01/18 14:05:21;;;;;;;4.35;1.83;;;;;;;;;;2362452;57;21056;-77
2022/01/18 14:07:48;;;;;;;2.30;1.27;;;;;;;;;;2362247;57;21128;-77
2022/01/18 14:10:15;;;;;;;5.35;1.42;;;;;;;;;;2361744;57;21045;-77
2022/01/18 14:12:43;;;;;;;5.37;1.65;;;;;;;;;;2613187;53;21072;-78
2022/01/18 14:15:11;;;;;;;4.25;1.30;;;;;;;;;;2362144;57;21112;-78
2022/01/18 14:17:38;;;;;;;3.28;1.62;;;;;;;;;;2613261;53;21049;-77
2022/01/18 14:20:08;;;;;;;3.87;1.12;;;;;;;;;;2612995;53;21059;-78
2022/01/18 14:22:36;;;;;;;3.05;1.60;;;;;;;;;;2362850;57;21541;-77
2022/01/18 14:25:05;;;;;;;3.28;1.90;;;;;;;;;;2362196;57;21109;-78
2022/01/18 14:27:34;;;;;;;4.10;1.85;;;;;;;;;;2613243;53;21065;-77
2022/01/18 14:30:02;;;;;;;2.28;1.30;;;;;;;;;;2362380;57;21116;-78
2022/01/18 14:32:33;;;;;;;3.15;1.52;;;;;;;;;;2361824;57;21116;-78
2022/01/18 14:35:02;;;;;;;3.10;1.80;;;;;;;;;;2612882;53;21032;-77
2022/01/18 14:37:36;;;;;;;3.70;2.00;;;;;;;;;;2613094;53;21048;-77
2022/01/18 14:40:05;;;;;;;3.12;2.25;;;;;;;;;;2361636;57;21256;-77
2022/01/18 14:42:34;;;;;;;5.55;2.10;;;;;;;;;;2362254;57;21068;-77
2022/01/18 14:45:18;;;;;;;5.35;2.53;;;;;;;;;;2612842;53;21073;-77
2022/01/18 14:47:45;;;;;;;5.47;2.22;;;;;;;;;;2613035;53;21032;-77
2022/01/18 14:50:14;;;;;;;2.62;2.40;;;;;;;;;;2362090;57;21061;-77
2022/01/18 14:52:41;;;;;;;4.40;2.17;;;;;;;;;;2612942;53;21032;-77
2022/01/18 14:55:09;;;;;;;4.12;2.20;;;;;;;;;;2362335;57;21033;-78
2022/01/18 14:57:37;;;;;;;4.93;2.35;;;;;;;;;;2362085;57;21052;-77
2022/01/18 15:00:06;;;;;;;5.18;2.37;;;;;;;;;;2361878;57;21131;-77
2022/01/18 15:02:34;;;;;;;3.33;2.10;;;;;;;;;;2362398;57;21085;-77
2022/01/18 15:05:01;;;;;;;2.60;2.08;;;;;;;;;;2362027;57;21020;-77
2022/01/18 15:07:28;;;;;;;3.25;2.12;;;;;;;;;;2362175;57;21052;-77
2022/01/18 15:09:55;;;;;;;4.25;2.70;;;;;;;;;;2361429;57;21541;-78
2022/01/18 15:12:23;;;;;;;5.35;3.92;;;;;;;;;;2362334;57;21446;-77
2022/01/18 15:14:50;;;;;;;6.45;2.78;;;;;;;;;;2612628;53;21139;-77
2022/01/18 15:17:17;;;;;;;4.15;2.67;;;;;;;;;;2361932;57;21096;-77
2022/01/18 15:19:44;;;;;;;3.03;2.28;;;;;;;;;;2361052;57;21541;-77
2022/01/18 15:22:11;;;;;;;4.43;3.37;;;;;;;;;;2361026;57;21529;-77
2022/01/18 15:24:39;;;;;;;3.95;2.15;;;;;;;;;;2362143;57;21150;-77
2022/01/18 15:27:06;;;;;;;3.10;2.25;;;;;;;;;;2612704;53;21589;-78
2022/01/18 15:29:35;;;;;;;2.75;2.40;;;;;;;;;;2361903;57;21149;-77
2022/01/18 15:32:03;;;;;;;5.07;3.20;;;;;;;;;;2362099;57;21041;-77
2022/01/18 15:34:31;;;;;;;3.78;2.37;;;;;;;;;;2362323;57;21068;-78
2022/01/18 15:36:58;;;;;;;3.58;2.47;;;;;;;;;;2362351;57;21107;-77
2022/01/18 15:39:25;;;;;;;4.37;2.33;;;;;;;;;;2362229;57;21105;-77
2022/01/18 15:41:52;;;;;;;3.42;2.37;;;;;;;;;;2613769;53;21189;-78
2022/01/18 15:44:19;;;;;;;3.80;3.08;;;;;;;;;;2361319;57;21103;-78
2022/01/18 15:46:47;;;;;;;5.00;2.83;;;;;;;;;;2609758;53;21092;-77
2022/01/18 15:49:14;;;;;;;4.20;3.05;;;;;;;;;;2609367;53;21807;-78
2022/01/18 15:51:43;;;;;;;5.95;2.97;;;;;;;;;;2609567;53;21045;-78
2022/01/18 15:54:10;;;;;;;4.22;3.03;;;;;;;;;;2609780;53;21049;-78
2022/01/18 15:56:37;;;;;;;4.05;3.15;;;;;;;;;;2609751;53;21355;-78